createdAt,value
2023-02-06T00:00:47.198Z,4.15
2023-02-06T00:03:13.586Z,3.90
2023-02-06T00:05:40.139Z,3.50
2023-02-06T00:08:07.204Z,4.15
2023-02-06T00:10:34.212Z,3.83
2023-02-06T00:13:00.770Z,3.78
2023-02-06T00:15:27.282Z,3.28
2023-02-06T00:17:53.675Z,4.28
2023-02-06T00:20:20.093Z,3.67
2023-02-06T00:22:46.550Z,3.38
2023-02-06T00:25:12.931Z,4.18
2023-02-06T00:27:39.306Z,3.05
2023-02-06T00:30:06.268Z,4.07
2023-02-06T00:32:34.801Z,3.42
2023-02-06T00:35:01.219Z,3.30
2023-02-06T00:37:27.655Z,3.83
2023-02-06T00:39:54.052Z,3.38
2023-02-06T00:42:20.663Z,3.67
2023-02-06T00:44:47.086Z,4.30
2023-02-06T00:47:13.526Z,2.95
2023-02-06T00:49:39.905Z,3.60
2023-02-06T00:52:06.347Z,3.67
2023-02-06T00:54:32.793Z,2.75
2023-02-06T00:56:59.212Z,3.60
2023-02-06T00:59:25.579Z,3.03
2023-02-06T01:01:52.007Z,2.80
2023-02-06T01:04:18.509Z,2.75
2023-02-06T01:06:45.002Z,3.17
2023-02-06T01:09:11.498Z,3.30
2023-02-06T01:11:37.869Z,3.50
2023-02-06T01:14:04.382Z,3.60
2023-02-06T01:16:30.770Z,3.13
2023-02-06T01:18:57.169Z,3.03
2023-02-06T01:21:24.853Z,3.85
2023-02-06T01:23:52.772Z,3.03
2023-02-06T01:26:22.371Z,2.78
2023-02-06T01:28:49.366Z,3.85
2023-02-06T01:31:23.955Z,4.03
2023-02-06T01:33:50.966Z,3.35
2023-02-06T01:36:18.314Z,3.05
2023-02-06T01:38:45.352Z,2.83
2023-02-06T01:41:12.816Z,3.17
2023-02-06T01:43:42.813Z,4.20
2023-02-06T01:46:09.551Z,3.50
2023-02-06T01:48:40.700Z,3.83
2023-02-06T01:51:09.895Z,3.60
2023-02-06T01:53:36.565Z,3.50
2023-02-06T01:56:04.769Z,3.45
2023-02-06T01:58:36.246Z,3.63
2023-02-06T02:01:03.259Z,3.65
2023-02-06T02:03:31.414Z,3.92
2023-02-06T02:06:00.501Z,4.07
2023-02-06T02:08:48.115Z,3.50
2023-02-06T02:11:18.884Z,3.35
2023-02-06T02:13:45.541Z,4.07
2023-02-06T02:16:33.252Z,3.28
2023-02-06T02:19:29.157Z,3.08
2023-02-06T02:22:30.037Z,2.65
2023-02-06T02:25:17.870Z,2.85
2023-02-06T02:27:59.333Z,3.47
2023-02-06T02:30:53.717Z,3.25
2023-02-06T02:33:58.043Z,2.90
2023-02-06T02:36:32.969Z,3.20
2023-02-06T02:39:23.211Z,3.05
2023-02-06T02:42:03.921Z,3.50
2023-02-06T02:45:08.047Z,3.42
2023-02-06T02:47:42.982Z,2.85
2023-02-06T02:50:12.461Z,2.88
2023-02-06T02:52:38.849Z,2.70
2023-02-06T02:55:20.712Z,2.40
2023-02-06T02:57:49.618Z,2.33
2023-02-06T03:00:17.650Z,3.08
2023-02-06T03:02:45.415Z,3.03
2023-02-06T03:05:15.135Z,2.70
2023-02-06T03:08:02.595Z,2.33
2023-02-06T03:10:44.351Z,2.40
2023-02-06T03:13:17.496Z,2.58
2023-02-06T03:15:56.699Z,2.20
2023-02-06T03:18:32.203Z,2.58
2023-02-06T03:21:00.037Z,2.65
2023-02-06T03:23:29.585Z,3.22
2023-02-06T03:25:58.896Z,2.80
2023-02-06T03:28:27.954Z,2.63
2023-02-06T03:30:56.940Z,2.65
2023-02-06T03:33:28.705Z,2.95
2023-02-06T03:35:56.805Z,2.92
2023-02-06T03:38:24.755Z,2.60
2023-02-06T03:40:51.903Z,2.95
2023-02-06T03:43:20.159Z,3.20
2023-02-06T03:45:49.242Z,2.20
2023-02-06T03:48:19.711Z,2.63
2023-02-06T03:50:47.836Z,2.38
2023-02-06T03:53:14.756Z,2.33
2023-02-06T03:55:42.963Z,2.88
2023-02-06T03:58:12.408Z,2.95
2023-02-06T04:00:39.457Z,4.43
2023-02-06T04:03:06.139Z,2.28
2023-02-06T04:05:32.501Z,3.42
2023-02-06T04:07:58.939Z,2.45
2023-02-06T04:10:26.433Z,2.15
2023-02-06T04:12:53.104Z,2.90
2023-02-06T04:15:19.513Z,2.47
2023-02-06T04:17:58.981Z,3.20
2023-02-06T04:20:26.477Z,2.45
2023-02-06T04:22:52.938Z,3.13
2023-02-06T04:25:19.355Z,2.80
2023-02-06T04:27:45.840Z,2.90
2023-02-06T04:30:12.997Z,2.47
2023-02-06T04:32:39.393Z,2.38
2023-02-06T04:35:05.875Z,2.42
2023-02-06T04:37:32.787Z,2.20
2023-02-06T04:39:59.216Z,2.78
2023-02-06T04:42:25.601Z,2.60
2023-02-06T04:44:52.066Z,2.45
2023-02-06T04:47:18.541Z,2.55
2023-02-06T04:49:44.970Z,2.85
2023-02-06T04:52:11.443Z,2.60
2023-02-06T04:54:37.854Z,2.97
2023-02-06T04:57:04.281Z,2.97
2023-02-06T04:59:30.717Z,2.33
2023-02-06T05:01:57.145Z,2.33
2023-02-06T05:04:23.552Z,2.28
2023-02-06T05:06:49.993Z,2.33
2023-02-06T05:09:16.423Z,2.53
2023-02-06T05:11:42.855Z,3.60
2023-02-06T05:14:09.259Z,1.80
2023-02-06T05:16:35.650Z,2.60
2023-02-06T05:19:02.033Z,1.90
2023-02-06T05:21:28.818Z,2.28
2023-02-06T05:23:55.277Z,2.28
2023-02-06T05:26:21.678Z,2.53
2023-02-06T05:28:48.056Z,2.47
2023-02-06T05:31:19.519Z,2.30
2023-02-06T05:33:47.524Z,2.20
2023-02-06T05:36:14.083Z,3.13
2023-02-06T05:38:40.478Z,2.55
2023-02-06T05:41:06.892Z,2.58
2023-02-06T05:43:33.716Z,3.00
2023-02-06T05:46:00.190Z,2.58
2023-02-06T05:48:29.002Z,2.50
2023-02-06T05:50:55.375Z,2.30
2023-02-06T05:53:21.790Z,2.47
2023-02-06T05:55:48.153Z,2.20
2023-02-06T05:58:14.607Z,2.22
2023-02-06T06:00:41.075Z,2.40
2023-02-06T06:03:07.698Z,2.30
2023-02-06T06:05:34.357Z,3.00
2023-02-06T06:08:00.854Z,2.92
2023-02-06T06:10:27.232Z,3.15
2023-02-06T06:12:53.599Z,2.60
2023-02-06T06:15:19.970Z,2.22
2023-02-06T06:17:46.363Z,3.38
2023-02-06T06:20:12.809Z,2.97
2023-02-06T06:22:39.258Z,2.90
2023-02-06T06:25:07.006Z,2.58
2023-02-06T06:27:33.799Z,2.92
2023-02-06T06:30:00.220Z,3.25
2023-02-06T06:32:26.666Z,2.65
2023-02-06T06:34:53.050Z,2.90
2023-02-06T06:37:19.414Z,2.53
2023-02-06T06:39:45.809Z,2.33
2023-02-06T06:42:12.168Z,3.15
2023-02-06T06:44:38.646Z,2.83
2023-02-06T06:47:05.130Z,2.83
2023-02-06T06:49:33.156Z,3.20
2023-02-06T06:51:59.620Z,3.00
2023-02-06T06:54:26.105Z,3.25
2023-02-06T06:56:52.634Z,2.92
2023-02-06T06:59:19.045Z,3.25
2023-02-06T07:01:46.065Z,3.35
2023-02-06T07:04:12.493Z,2.95
2023-02-06T07:06:38.979Z,3.03
2023-02-06T07:09:05.417Z,3.70
2023-02-06T07:11:31.845Z,3.55
2023-02-06T07:13:58.300Z,4.43
2023-02-06T07:16:24.774Z,3.35
2023-02-06T07:18:51.271Z,2.85
2023-02-06T07:21:19.745Z,2.88
2023-02-06T07:23:46.365Z,3.95
2023-02-06T07:26:12.942Z,3.05
2023-02-06T07:28:39.361Z,3.67
2023-02-06T07:31:06.902Z,3.45
2023-02-06T07:33:34.584Z,4.10
2023-02-06T07:36:03.880Z,4.30
2023-02-06T07:38:30.645Z,3.45
2023-02-06T07:41:01.436Z,3.08
2023-02-06T07:43:27.902Z,3.45
2023-02-06T07:45:54.295Z,3.50
2023-02-06T07:48:20.734Z,4.55
2023-02-06T07:50:47.120Z,3.53
2023-02-06T07:53:13.534Z,3.60
2023-02-06T07:55:39.995Z,3.60
2023-02-06T07:58:06.519Z,3.78
2023-02-06T08:00:33.121Z,3.88
2023-02-06T08:02:59.544Z,3.25
2023-02-06T08:05:26.006Z,3.80
2023-02-06T08:07:52.445Z,4.15
2023-02-06T08:10:18.890Z,3.33
2023-02-06T08:12:45.319Z,3.97
2023-02-06T08:15:11.828Z,4.47
2023-02-06T08:17:38.215Z,4.13
2023-02-06T08:20:04.641Z,3.88
2023-02-06T08:22:31.001Z,4.55
2023-02-06T08:24:57.406Z,4.45
2023-02-06T08:27:23.769Z,4.88
2023-02-06T08:29:51.663Z,6.03
2023-02-06T08:32:18.051Z,5.20
2023-02-06T08:34:44.619Z,4.50
2023-02-06T08:37:11.240Z,4.25
2023-02-06T08:39:38.366Z,5.15
2023-02-06T08:42:05.153Z,3.92
2023-02-06T08:44:31.665Z,3.92
2023-02-06T08:47:09.282Z,9.02
2023-02-06T08:49:36.627Z,4.00
2023-02-06T08:52:03.078Z,5.13
2023-02-06T08:54:29.695Z,4.80
2023-02-06T08:57:00.954Z,4.70
2023-02-06T08:59:29.397Z,5.65
2023-02-06T09:01:55.815Z,4.53
2023-02-06T09:04:22.230Z,5.13
2023-02-06T09:06:49.115Z,5.30
2023-02-06T09:09:15.974Z,5.28
2023-02-06T09:11:42.544Z,4.38
2023-02-06T09:14:13.513Z,5.13
2023-02-06T09:16:39.958Z,5.93
2023-02-06T09:19:06.476Z,4.32
2023-02-06T09:21:34.830Z,4.60
2023-02-06T09:24:03.896Z,4.90
2023-02-06T09:26:44.869Z,4.75
2023-02-06T09:29:20.057Z,4.55
2023-02-06T09:31:47.172Z,4.85
2023-02-06T09:34:13.734Z,4.53
2023-02-06T09:36:40.896Z,4.57
2023-02-06T09:39:08.386Z,5.07
2023-02-06T09:41:47.106Z,4.25
2023-02-06T09:44:29.849Z,4.40
2023-02-06T09:47:17.411Z,4.40
2023-02-06T09:49:55.529Z,4.70
2023-02-06T09:52:24.950Z,4.88
2023-02-06T09:55:09.106Z,4.97
2023-02-06T09:57:45.439Z,5.28
2023-02-06T10:00:12.360Z,4.72
2023-02-06T10:02:57.410Z,4.45
2023-02-06T10:05:54.448Z,4.90
2023-02-06T10:08:36.112Z,3.70
2023-02-06T10:11:09.821Z,4.30
2023-02-06T10:13:40.309Z,4.65
2023-02-06T10:16:30.770Z,4.57
2023-02-06T10:19:03.201Z,3.80
2023-02-06T10:21:37.070Z,4.30
2023-02-06T10:24:27.893Z,3.53
2023-02-06T10:26:55.557Z,3.90
2023-02-06T10:29:26.421Z,4.50
2023-02-06T10:32:14.276Z,3.92
2023-02-06T10:35:00.755Z,4.22
2023-02-06T10:37:47.751Z,3.97
2023-02-06T10:40:14.226Z,4.43
2023-02-06T10:42:46.873Z,4.47
2023-02-06T10:45:22.123Z,4.20
2023-02-06T10:47:55.000Z,3.35
2023-02-06T10:50:29.746Z,4.15
2023-02-06T10:52:59.866Z,4.20
2023-02-06T10:55:29.295Z,3.65
2023-02-06T10:58:19.300Z,3.17
2023-02-06T11:00:46.723Z,4.05
2023-02-06T11:03:16.171Z,4.15
2023-02-06T11:05:43.280Z,3.75
2023-02-06T11:08:13.785Z,3.42
2023-02-06T11:10:40.495Z,4.20
2023-02-06T11:13:13.822Z,3.40
2023-02-06T11:15:44.954Z,3.05
2023-02-06T11:18:14.842Z,4.15
2023-02-06T11:20:43.046Z,2.95
2023-02-06T11:23:19.110Z,2.92
2023-02-06T11:25:46.578Z,3.05
2023-02-06T11:28:18.229Z,4.20
2023-02-06T11:30:55.930Z,3.38
2023-02-06T11:33:27.942Z,3.38
2023-02-06T11:35:56.132Z,2.75
2023-02-06T11:38:24.566Z,4.13
2023-02-06T11:40:56.799Z,2.75
2023-02-06T11:43:29.481Z,2.80
2023-02-06T11:46:12.875Z,3.08
2023-02-06T11:48:41.129Z,2.90
2023-02-06T11:51:08.753Z,2.67
2023-02-06T11:53:35.922Z,2.95
2023-02-06T11:56:06.906Z,2.72
2023-02-06T11:58:33.570Z,2.97
2023-02-06T12:01:04.248Z,2.60
2023-02-06T12:03:32.883Z,3.05
2023-02-06T12:06:04.109Z,3.42
2023-02-06T12:08:41.006Z,3.85
2023-02-06T12:11:13.375Z,3.38
2023-02-06T12:13:44.013Z,2.72
2023-02-06T12:16:13.186Z,3.13
2023-02-06T12:18:42.256Z,3.00
2023-02-06T12:21:14.567Z,3.38
2023-02-06T12:23:49.509Z,2.97
2023-02-06T12:26:23.312Z,2.88
2023-02-06T12:28:52.809Z,2.88
2023-02-06T12:31:24.706Z,2.40
2023-02-06T12:34:04.609Z,3.03
2023-02-06T12:36:34.711Z,3.42
2023-02-06T12:39:04.579Z,2.67
2023-02-06T12:44:08.616Z,2.45
2023-02-06T12:46:35.274Z,2.53
2023-02-06T12:49:26.791Z,3.13
2023-02-06T12:52:00.372Z,2.95
2023-02-06T12:54:31.840Z,2.97
2023-02-06T12:57:16.170Z,3.08
2023-02-06T13:00:13.115Z,2.30
2023-02-06T13:02:51.813Z,2.92
2023-02-06T13:05:39.750Z,2.70
2023-02-06T13:08:13.578Z,2.30
2023-02-06T13:10:40.462Z,2.25
2023-02-06T13:13:07.343Z,2.90
2023-02-06T13:15:40.789Z,2.75
2023-02-06T13:18:36.682Z,2.47
2023-02-06T13:21:24.147Z,2.72
2023-02-06T13:24:02.887Z,2.58
2023-02-06T13:26:48.814Z,2.45
2023-02-06T13:29:26.802Z,2.50
2023-02-06T13:32:11.924Z,2.42
2023-02-06T13:34:44.311Z,3.20
2023-02-06T13:37:25.846Z,2.35
2023-02-06T13:40:11.008Z,2.92
2023-02-06T13:42:51.903Z,2.72
2023-02-06T13:45:24.831Z,2.40
2023-02-06T13:48:19.059Z,2.63
2023-02-06T13:50:54.345Z,2.30
2023-02-06T13:54:01.179Z,2.25
2023-02-06T13:57:04.935Z,2.70
2023-02-06T13:59:36.932Z,3.10
2023-02-06T14:02:23.623Z,2.42
2023-02-06T14:04:50.374Z,2.42
2023-02-06T14:07:39.955Z,2.53
2023-02-06T14:10:35.200Z,2.60
2023-02-06T14:13:15.073Z,2.40
2023-02-06T14:15:48.828Z,2.50
2023-02-06T14:18:38.186Z,2.35
2023-02-06T14:21:24.634Z,2.50
2023-02-06T14:24:08.013Z,2.50
2023-02-06T14:27:00.937Z,2.50
2023-02-06T14:29:37.692Z,2.63
2023-02-06T14:32:06.450Z,2.70
2023-02-06T14:34:46.175Z,2.15
2023-02-06T14:37:25.122Z,2.03
2023-02-06T14:39:53.857Z,2.58
2023-02-06T14:42:27.634Z,3.13
2023-02-06T14:44:57.882Z,2.70
2023-02-06T14:47:27.709Z,2.22
2023-02-06T14:52:23.669Z,2.60
2023-02-06T14:54:50.153Z,3.13
2023-02-06T14:57:29.567Z,3.17
2023-02-06T15:00:01.433Z,5.43
2023-02-06T15:02:35.622Z,5.70
2023-02-06T15:05:03.374Z,5.57
2023-02-06T15:07:33.851Z,4.63
2023-02-06T15:10:07.421Z,4.43
2023-02-06T15:12:34.876Z,4.50
2023-02-06T15:15:15.195Z,4.85
2023-02-06T15:17:41.928Z,2.90
2023-02-06T15:20:20.559Z,3.20
2023-02-06T15:22:47.033Z,2.55
2023-02-06T15:25:27.121Z,3.80
2023-02-06T15:28:18.747Z,3.25
2023-02-06T15:30:45.453Z,2.65
2023-02-06T15:33:17.930Z,2.53
2023-02-06T15:35:49.406Z,5.43
2023-02-06T15:38:16.690Z,3.45
2023-02-06T15:40:48.196Z,2.50
2023-02-06T15:43:17.025Z,2.35
2023-02-06T15:45:44.370Z,2.80
2023-02-06T15:48:24.803Z,2.55
2023-02-06T15:51:03.178Z,2.92
2023-02-06T15:53:36.106Z,2.42
2023-02-06T15:56:04.839Z,2.83
2023-02-06T15:58:32.845Z,2.70
2023-02-06T16:00:59.825Z,2.95
2023-02-06T16:03:27.569Z,2.83
2023-02-06T16:05:56.353Z,3.13
2023-02-06T16:08:27.065Z,2.85
2023-02-06T16:10:59.674Z,4.00
2023-02-06T16:13:28.027Z,3.50
2023-02-06T16:16:17.153Z,2.80
2023-02-06T16:18:43.727Z,3.30
2023-02-06T16:21:22.550Z,3.20
2023-02-06T16:23:53.438Z,3.00
2023-02-06T16:26:19.728Z,3.17
2023-02-06T16:29:02.886Z,3.58
2023-02-06T16:31:31.429Z,3.92
2023-02-06T16:34:03.264Z,4.25
2023-02-06T16:36:31.826Z,3.40
2023-02-06T16:39:04.034Z,3.90
2023-02-06T16:41:39.212Z,4.28
2023-02-06T16:44:12.859Z,3.67
2023-02-06T16:46:39.252Z,3.00
2023-02-06T16:49:10.743Z,3.00
2023-02-06T16:51:39.206Z,3.28
2023-02-06T16:54:07.304Z,3.38
2023-02-06T16:56:34.736Z,3.33
2023-02-06T16:59:01.249Z,3.78
2023-02-06T17:01:29.499Z,3.85
2023-02-06T17:03:55.976Z,3.60
2023-02-06T17:06:27.339Z,4.47
2023-02-06T17:08:57.293Z,3.28
2023-02-06T17:11:23.751Z,2.78
2023-02-06T17:13:50.177Z,3.50
2023-02-06T17:16:19.935Z,3.42
2023-02-06T17:18:47.118Z,5.03
2023-02-06T17:21:15.981Z,5.43
2023-02-06T17:23:42.566Z,4.40
2023-02-06T17:26:14.234Z,5.03
2023-02-06T17:28:41.121Z,3.80
2023-02-06T17:31:08.298Z,4.38
2023-02-06T17:33:35.252Z,4.90
2023-02-06T17:36:02.587Z,5.80
2023-02-06T17:38:29.050Z,5.80
2023-02-06T17:40:55.440Z,5.95
2023-02-06T17:43:22.081Z,7.35
2023-02-06T17:45:48.754Z,6.47
2023-02-06T17:48:15.170Z,6.50
2023-02-06T17:50:42.139Z,5.75
2023-02-06T17:53:13.712Z,6.15
2023-02-06T17:55:40.444Z,5.45
2023-02-06T17:58:07.387Z,5.82
2023-02-06T18:00:34.338Z,5.55
2023-02-06T18:03:00.903Z,5.43
2023-02-06T18:05:27.388Z,5.45
2023-02-06T18:07:53.897Z,6.25
2023-02-06T18:10:23.017Z,5.82
2023-02-06T18:12:49.430Z,5.45
2023-02-06T18:15:16.582Z,6.45
2023-02-06T18:17:43.332Z,5.50
2023-02-06T18:20:11.274Z,6.07
2023-02-06T18:22:41.211Z,6.82
2023-02-06T18:25:13.206Z,9.15
2023-02-06T18:27:41.533Z,8.43
2023-02-06T18:30:09.257Z,7.60
2023-02-06T18:32:37.596Z,7.07
2023-02-06T18:35:04.730Z,7.45
2023-02-06T18:37:31.144Z,7.60
2023-02-06T18:39:57.556Z,8.02
2023-02-06T18:42:42.564Z,7.75
2023-02-06T18:45:09.329Z,6.95
2023-02-06T18:47:35.739Z,6.47
2023-02-06T18:50:02.309Z,6.28
2023-02-06T18:52:28.977Z,6.75
2023-02-06T18:54:55.372Z,7.47
2023-02-06T18:57:21.724Z,8.35
2023-02-06T18:59:48.188Z,7.82
2023-02-06T19:02:14.636Z,7.47
2023-02-06T19:04:41.173Z,5.78
2023-02-06T19:07:08.897Z,5.90
2023-02-06T19:09:35.380Z,5.78
2023-02-06T19:12:01.775Z,6.03
2023-02-06T19:14:28.165Z,5.53
2023-02-06T19:16:54.987Z,5.63
2023-02-06T19:19:21.642Z,4.47
2023-02-06T19:21:48.242Z,5.10
2023-02-06T19:24:18.372Z,5.95
2023-02-06T19:26:45.500Z,5.60
2023-02-06T19:29:15.159Z,6.35
2023-02-06T19:31:42.605Z,6.25
2023-02-06T19:34:09.129Z,6.20
2023-02-06T19:36:35.764Z,5.75
2023-02-06T19:39:06.159Z,5.93
2023-02-06T19:41:34.153Z,6.78
2023-02-06T19:44:03.478Z,6.95
2023-02-06T19:46:29.907Z,7.20
2023-02-06T19:48:56.420Z,6.65
2023-02-06T19:51:29.655Z,6.78
2023-02-06T19:53:57.710Z,7.20
2023-02-06T19:56:39.221Z,6.85
2023-02-06T19:59:08.916Z,7.82
2023-02-06T20:01:36.003Z,7.40
2023-02-06T20:04:02.940Z,8.82
2023-02-06T20:06:34.727Z,9.85
2023-02-06T20:09:03.285Z,9.30
2023-02-06T20:11:31.633Z,9.98
2023-02-06T20:13:58.617Z,9.95
2023-02-06T20:16:28.111Z,9.93
2023-02-06T20:18:54.905Z,10.77
2023-02-06T20:21:29.374Z,10.80
2023-02-06T20:24:00.272Z,20.33
2023-02-06T20:26:29.909Z,10.40
2023-02-06T20:28:56.525Z,9.60
2023-02-06T20:31:23.231Z,11.38
2023-02-06T20:33:49.734Z,16.38
2023-02-06T20:36:19.211Z,13.23
2023-02-06T20:38:56.406Z,13.77
2023-02-06T20:41:27.608Z,12.27
2023-02-06T20:43:57.096Z,11.02
2023-02-06T20:46:24.791Z,10.75
2023-02-06T20:48:56.530Z,11.18
2023-02-06T20:51:23.443Z,10.18
2023-02-06T20:53:50.014Z,9.77
2023-02-06T20:56:17.854Z,9.45
2023-02-06T20:58:44.612Z,9.13
2023-02-06T21:01:28.571Z,10.77
2023-02-06T21:04:06.261Z,10.60
2023-02-06T21:06:34.096Z,12.15
2023-02-06T21:09:01.106Z,12.57
2023-02-06T21:11:29.504Z,11.68
2023-02-06T21:14:00.761Z,11.68
2023-02-06T21:16:27.878Z,11.52
2023-02-06T21:18:55.144Z,11.07
2023-02-06T21:21:21.997Z,11.27
2023-02-06T21:23:48.562Z,12.70
2023-02-06T21:26:17.304Z,12.95
2023-02-06T21:28:44.650Z,11.55
2023-02-06T21:31:16.039Z,12.52
2023-02-06T21:33:43.277Z,13.60
2023-02-06T21:36:09.798Z,12.65
2023-02-06T21:38:36.600Z,13.25
2023-02-06T21:41:07.998Z,14.25
2023-02-06T21:43:34.852Z,12.90
2023-02-06T21:46:01.978Z,14.02
2023-02-06T21:48:28.588Z,13.63
2023-02-06T21:50:55.125Z,12.85
2023-02-06T21:53:21.773Z,13.63
2023-02-06T21:55:48.469Z,15.25
2023-02-06T21:58:15.252Z,17.15
2023-02-06T22:00:44.293Z,16.25
2023-02-06T22:03:11.444Z,15.23
2023-02-06T22:05:38.262Z,17.02
2023-02-06T22:08:05.391Z,15.90
2023-02-06T22:10:32.134Z,14.25
2023-02-06T22:12:58.521Z,15.10
2023-02-06T22:15:24.982Z,14.90
2023-02-06T22:17:51.395Z,13.43
2023-02-06T22:20:17.915Z,13.25
2023-02-06T22:22:44.531Z,15.13
2023-02-06T22:25:11.695Z,14.40
2023-02-06T22:27:38.087Z,14.73
2023-02-06T22:30:05.795Z,14.48
2023-02-06T22:32:32.160Z,14.82
2023-02-06T22:34:59.681Z,13.95
2023-02-06T22:37:26.840Z,12.68
2023-02-06T22:39:56.064Z,13.63
2023-02-06T22:42:23.056Z,15.10
2023-02-06T22:44:49.613Z,13.35
2023-02-06T22:47:16.497Z,13.10
2023-02-06T22:49:43.081Z,12.20
2023-02-06T22:52:29.577Z,12.75
2023-02-06T22:54:56.084Z,11.48
2023-02-06T22:57:23.634Z,11.45
2023-02-06T22:59:50.153Z,11.30
2023-02-06T23:02:16.791Z,10.75
2023-02-06T23:04:43.225Z,10.05
2023-02-06T23:07:09.669Z,10.77
2023-02-06T23:09:37.522Z,10.82
2023-02-06T23:12:04.576Z,9.85
2023-02-06T23:14:32.572Z,10.73
2023-02-06T23:17:00.617Z,10.70
2023-02-06T23:19:27.179Z,12.77
2023-02-06T23:21:53.860Z,12.15
2023-02-06T23:24:20.674Z,11.43
2023-02-06T23:26:48.538Z,10.85
2023-02-06T23:29:17.240Z,10.68
2023-02-06T23:31:45.264Z,11.32
2023-02-06T23:34:11.992Z,11.40
2023-02-06T23:36:38.415Z,11.15
2023-02-06T23:39:05.387Z,12.05
2023-02-06T23:41:32.866Z,12.10
2023-02-06T23:44:05.268Z,13.13
2023-02-06T23:46:34.440Z,13.38
2023-02-06T23:49:00.919Z,11.73
2023-02-06T23:51:27.760Z,13.68
2023-02-06T23:53:54.336Z,14.40
2023-02-06T23:56:23.346Z,14.38
2023-02-06T23:58:50.391Z,14.15
